createdAt,value
2023-03-15T00:02:41.988Z,98515.06
2023-03-15T00:05:23.568Z,98514.78
2023-03-15T00:08:21.071Z,98516.00
2023-03-15T00:11:04.173Z,98523.00
2023-03-15T00:13:46.755Z,98532.41
2023-03-15T00:16:30.563Z,98528.25
2023-03-15T00:19:20.254Z,98535.91
2023-03-15T00:22:01.592Z,98538.50
2023-03-15T00:24:50.950Z,98530.50
2023-03-15T00:27:37.700Z,98538.13
2023-03-15T00:30:16.377Z,98540.84
2023-03-15T00:33:05.848Z,98549.88
2023-03-15T00:35:54.525Z,98540.22
2023-03-15T00:38:46.597Z,98537.28
2023-03-15T00:41:23.359Z,98540.47
2023-03-15T00:44:04.721Z,98539.41
2023-03-15T00:46:48.657Z,98542.75
2023-03-15T00:49:43.300Z,98536.38
2023-03-15T00:52:34.709Z,98539.88
2023-03-15T00:55:27.945Z,98536.50
2023-03-15T00:58:22.294Z,98537.19
2023-03-15T01:01:07.223Z,98520.81
2023-03-15T01:03:57.803Z,98517.16
2023-03-15T01:06:43.584Z,98520.16
2023-03-15T01:09:27.748Z,98507.75
2023-03-15T01:12:24.973Z,98509.03
2023-03-15T01:15:11.970Z,98507.06
2023-03-15T01:18:00.750Z,98511.09
2023-03-15T01:20:53.746Z,98511.47
2023-03-15T01:23:30.593Z,98525.72
2023-03-15T01:26:18.237Z,98517.09
2023-03-15T01:29:08.890Z,98531.41
2023-03-15T01:31:46.775Z,98528.91
2023-03-15T01:34:30.201Z,98530.34
2023-03-15T01:37:20.301Z,98525.75
2023-03-15T01:40:09.246Z,98524.94
2023-03-15T01:43:22.515Z,98529.41
2023-03-15T01:46:19.209Z,98520.84
2023-03-15T01:49:15.541Z,98519.47
2023-03-15T01:52:21.565Z,98522.84
2023-03-15T01:55:21.540Z,98517.34
2023-03-15T01:58:21.661Z,98526.53
2023-03-15T02:01:04.435Z,98525.69
2023-03-15T02:03:57.586Z,98525.13
2023-03-15T02:06:51.398Z,98528.97
2023-03-15T02:09:37.767Z,98521.25
2023-03-15T02:12:22.142Z,98525.81
2023-03-15T02:15:14.643Z,98522.44
2023-03-15T02:18:02.156Z,98528.63
2023-03-15T02:21:02.653Z,98532.16
2023-03-15T02:23:43.548Z,98523.59
2023-03-15T02:26:40.119Z,98530.28
2023-03-15T02:29:20.603Z,98530.84
2023-03-15T02:32:04.641Z,98545.84
2023-03-15T02:34:45.949Z,98545.50
2023-03-15T02:37:24.607Z,98542.81
2023-03-15T02:40:05.953Z,98540.13
2023-03-15T02:42:48.563Z,98540.44
2023-03-15T02:45:30.237Z,98542.22
2023-03-15T02:48:18.638Z,98541.78
2023-03-15T02:51:27.939Z,98543.16
2023-03-15T02:54:08.321Z,98538.59
2023-03-15T02:56:54.938Z,98540.38
2023-03-15T02:59:35.510Z,98547.03
2023-03-15T03:02:24.448Z,98540.91
2023-03-15T03:05:00.543Z,98540.38
2023-03-15T03:07:45.762Z,98547.25
2023-03-15T03:10:32.962Z,98550.66
2023-03-15T03:13:15.076Z,98550.91
2023-03-15T03:16:05.067Z,98546.31
2023-03-15T03:18:46.037Z,98550.28
2023-03-15T03:21:31.139Z,98547.25
2023-03-15T03:24:14.953Z,98545.16
2023-03-15T03:26:58.218Z,98556.16
2023-03-15T03:30:05.634Z,98549.84
2023-03-15T03:32:44.955Z,98546.56
2023-03-15T03:35:41.070Z,98536.03
2023-03-15T03:38:25.988Z,98546.56
2023-03-15T03:41:13.644Z,98539.75
2023-03-15T03:44:04.095Z,98536.72
2023-03-15T03:46:51.278Z,98552.19
2023-03-15T03:49:29.623Z,98554.03
2023-03-15T03:52:19.223Z,98541.06
2023-03-15T03:55:04.883Z,98535.19
2023-03-15T03:57:47.172Z,98534.03
2023-03-15T04:00:41.908Z,98528.16
2023-03-15T04:03:27.410Z,98539.91
2023-03-15T04:06:25.105Z,98536.13
2023-03-15T04:09:12.986Z,98537.31
2023-03-15T04:12:01.787Z,98550.88
2023-03-15T04:14:51.506Z,98536.97
2023-03-15T04:17:34.742Z,98529.81
2023-03-15T04:20:20.444Z,98528.41
2023-03-15T04:23:08.519Z,98523.75
2023-03-15T04:26:20.562Z,98515.19
2023-03-15T04:29:38.545Z,98515.44
2023-03-15T04:32:49.694Z,98523.13
2023-03-15T04:35:39.623Z,98528.41
2023-03-15T04:38:44.525Z,98546.63
2023-03-15T04:41:50.805Z,98546.16
2023-03-15T04:44:45.984Z,98554.03
2023-03-15T04:47:41.387Z,98554.84
2023-03-15T04:50:43.572Z,98548.16
2023-03-15T04:53:39.134Z,98572.13
2023-03-15T04:56:37.935Z,98569.69
2023-03-15T04:59:37.524Z,98574.94
2023-03-15T05:02:44.130Z,98580.50
2023-03-15T05:05:36.091Z,98588.59
2023-03-15T05:08:45.514Z,98589.50
2023-03-15T05:11:53.256Z,98585.72
2023-03-15T05:14:55.568Z,98603.94
2023-03-15T05:18:16.928Z,98604.94
2023-03-15T05:21:20.411Z,98615.06
2023-03-15T05:24:15.769Z,98605.81
2023-03-15T05:27:32.406Z,98600.50
2023-03-15T05:30:43.778Z,98609.63
2023-03-15T05:33:40.217Z,98619.06
2023-03-15T05:52:35.758Z,98634.41
2023-03-15T05:55:32.008Z,98620.91
2023-03-15T05:58:40.093Z,98627.69
2023-03-15T06:01:35.417Z,98626.78
2023-03-15T06:04:24.799Z,98629.03
2023-03-15T06:07:07.956Z,98636.06
2023-03-15T06:09:52.129Z,98634.78
2023-03-15T06:12:33.884Z,98630.91
2023-03-15T06:15:15.730Z,98646.22
2023-03-15T06:17:54.760Z,98643.00
2023-03-15T06:20:40.470Z,98656.00
2023-03-15T06:23:35.058Z,98652.75
2023-03-15T06:26:22.500Z,98660.69
2023-03-15T06:29:17.802Z,98659.25
2023-03-15T06:32:01.451Z,98666.06
2023-03-15T06:34:48.324Z,98662.59
2023-03-15T06:37:36.054Z,98670.69
2023-03-15T06:40:23.710Z,98661.44
2023-03-15T06:43:06.701Z,98669.06
2023-03-15T06:45:51.478Z,98674.47
2023-03-15T06:48:38.078Z,98660.19
2023-03-15T06:51:20.964Z,98669.81
2023-03-15T06:54:04.680Z,98675.41
2023-03-15T06:56:45.407Z,98673.97
2023-03-15T06:59:25.757Z,98671.09
2023-03-15T07:02:12.503Z,98682.34
2023-03-15T07:04:56.672Z,98691.38
2023-03-15T07:07:40.059Z,98696.22
2023-03-15T07:10:23.412Z,98695.25
2023-03-15T07:12:57.962Z,98698.75
2023-03-15T07:15:34.171Z,98700.94
2023-03-15T07:18:30.279Z,98705.09
2023-03-15T07:21:13.609Z,98710.63
2023-03-15T07:23:56.767Z,98713.91
2023-03-15T07:26:39.934Z,98716.41
2023-03-15T07:29:23.340Z,98724.16
2023-03-15T07:32:10.124Z,98726.38
2023-03-15T07:34:50.634Z,98722.81
2023-03-15T07:37:29.520Z,98725.72
2023-03-15T07:40:19.778Z,98724.75
2023-03-15T07:43:00.772Z,98726.19
2023-03-15T07:45:52.159Z,98734.47
2023-03-15T07:48:32.475Z,98742.22
2023-03-15T07:51:09.611Z,98740.38
2023-03-15T07:54:00.977Z,98746.81
2023-03-15T07:56:50.366Z,98741.25
2023-03-15T07:59:46.845Z,98752.81
2023-03-15T08:02:29.027Z,98757.22
2023-03-15T08:05:14.441Z,98752.66
2023-03-15T08:07:59.721Z,98754.84
2023-03-15T08:10:43.331Z,98764.25
2023-03-15T08:13:29.910Z,98759.59
2023-03-15T08:16:14.245Z,98758.63
2023-03-15T08:19:03.585Z,98762.28
2023-03-15T08:21:49.158Z,98768.25
2023-03-15T08:24:31.350Z,98771.16
2023-03-15T08:27:14.793Z,98782.03
2023-03-15T08:30:03.070Z,98785.78
2023-03-15T08:32:44.623Z,98787.41
2023-03-15T08:35:30.361Z,98792.91
2023-03-15T08:38:09.409Z,98801.78
2023-03-15T08:41:00.934Z,98796.94
2023-03-15T08:43:44.619Z,98798.19
2023-03-15T08:46:25.819Z,98806.38
2023-03-15T08:49:17.006Z,98806.97
2023-03-15T08:51:58.928Z,98811.13
2023-03-15T08:54:42.226Z,98815.97
2023-03-15T08:57:40.914Z,98821.78
2023-03-15T09:00:27.861Z,98833.28
2023-03-15T09:03:08.884Z,98831.81
2023-03-15T09:05:54.829Z,98841.94
2023-03-15T09:08:29.916Z,98846.88
2023-03-15T09:11:16.014Z,98857.63
2023-03-15T09:14:04.715Z,98855.25
2023-03-15T09:16:52.032Z,98869.91
2023-03-15T09:19:32.964Z,98877.81
2023-03-15T09:22:23.380Z,98875.00
2023-03-15T09:25:10.496Z,98876.75
2023-03-15T09:27:53.698Z,98884.81
2023-03-15T09:30:35.435Z,98891.97
2023-03-15T09:33:18.547Z,98896.34
2023-03-15T09:36:07.105Z,98908.91
2023-03-15T09:38:48.002Z,98916.25
2023-03-15T09:41:48.229Z,98918.13
2023-03-15T09:44:52.502Z,98924.03
2023-03-15T09:48:03.056Z,98929.31
2023-03-15T09:51:01.056Z,98933.28
2023-03-15T09:53:55.478Z,98936.00
2023-03-15T09:56:55.460Z,98940.75
2023-03-15T09:59:39.996Z,98945.63
2023-03-15T10:02:39.578Z,98940.34
2023-03-15T10:05:28.960Z,98947.50
2023-03-15T10:08:14.574Z,98953.97
2023-03-15T10:11:42.529Z,98953.75
2023-03-15T10:15:07.138Z,98951.75
2023-03-15T10:18:22.306Z,98951.34
2023-03-15T10:21:12.155Z,98954.13
2023-03-15T10:24:00.183Z,98949.59
2023-03-15T10:26:42.818Z,98952.78
2023-03-15T10:29:24.080Z,98951.97
2023-03-15T10:32:10.939Z,98948.19
2023-03-15T10:35:01.401Z,98953.69
2023-03-15T10:37:51.463Z,98954.91
2023-03-15T10:40:52.286Z,98953.94
2023-03-15T10:43:37.874Z,98955.63
2023-03-15T10:46:31.879Z,98958.31
2023-03-15T10:49:25.449Z,98959.72
2023-03-15T10:52:09.074Z,98961.00
2023-03-15T10:54:58.841Z,98963.94
2023-03-15T10:58:02.694Z,98956.69
2023-03-15T11:00:56.562Z,98960.19
2023-03-15T11:03:37.389Z,98956.06
2023-03-15T11:06:29.711Z,98956.59
2023-03-15T11:09:26.567Z,98955.84
2023-03-15T11:12:19.577Z,98964.91
2023-03-15T11:15:08.836Z,98961.84
2023-03-15T11:17:49.117Z,98963.25
2023-03-15T11:20:37.763Z,98965.50
2023-03-15T11:23:33.113Z,98966.28
2023-03-15T11:26:32.551Z,98977.41
2023-03-15T11:29:37.112Z,98983.66
2023-03-15T11:32:20.866Z,98976.44
2023-03-15T11:35:25.170Z,98978.19
2023-03-15T11:38:17.560Z,98991.47
2023-03-15T11:40:59.138Z,98989.63
2023-03-15T11:43:57.700Z,98983.50
2023-03-15T11:47:03.500Z,98993.00
2023-03-15T11:49:53.463Z,98992.31
2023-03-15T11:52:46.814Z,98989.41
2023-03-15T11:55:53.687Z,98980.69
2023-03-15T11:58:47.165Z,98979.53
2023-03-15T12:01:39.318Z,98980.53
2023-03-15T12:04:38.000Z,98976.94
2023-03-15T12:07:31.858Z,98971.03
2023-03-15T12:10:34.965Z,98988.28
2023-03-15T12:13:35.395Z,98987.31
2023-03-15T12:16:14.574Z,99005.06
2023-03-15T12:19:05.422Z,98998.53
2023-03-15T12:22:00.168Z,99008.69
2023-03-15T12:24:45.027Z,99009.38
2023-03-15T12:27:43.904Z,99004.59
2023-03-15T12:30:56.501Z,99006.63
2023-03-15T12:33:40.507Z,99018.97
2023-03-15T12:36:39.416Z,99016.50
2023-03-15T12:39:37.948Z,99016.53
2023-03-15T12:42:39.106Z,99014.59
2023-03-15T12:45:29.165Z,99014.50
2023-03-15T12:48:33.993Z,99019.00
2023-03-15T12:51:36.900Z,99023.97
2023-03-15T12:54:22.837Z,99025.69
2023-03-15T12:57:17.334Z,99030.22
2023-03-15T13:00:38.924Z,99033.59
2023-03-15T13:03:29.096Z,99039.25
2023-03-15T13:06:10.748Z,99039.63
2023-03-15T13:09:15.058Z,99046.16
2023-03-15T13:12:08.411Z,99039.72
2023-03-15T13:15:03.536Z,99041.88
2023-03-15T13:17:56.525Z,99043.91
2023-03-15T13:20:49.492Z,99051.50
2023-03-15T13:23:43.146Z,99049.22
2023-03-15T13:26:36.660Z,99057.22
2023-03-15T13:29:36.667Z,99051.41
2023-03-15T13:32:19.815Z,99061.06
2023-03-15T13:35:02.441Z,99061.94
2023-03-15T13:37:44.689Z,99065.16
2023-03-15T13:40:33.419Z,99067.25
2023-03-15T13:43:23.684Z,99080.97
2023-03-15T13:46:07.461Z,99083.19
2023-03-15T13:48:49.136Z,99070.41
2023-03-15T13:51:34.855Z,99078.16
2023-03-15T13:54:33.012Z,99096.22
2023-03-15T13:57:27.806Z,99096.81
2023-03-15T14:00:11.134Z,99087.84
2023-03-15T14:03:01.367Z,99094.84
2023-03-15T14:05:50.769Z,99091.97
2023-03-15T14:08:41.959Z,99104.59
2023-03-15T14:11:43.519Z,99109.97
2023-03-15T14:14:35.772Z,99117.41
2023-03-15T14:17:31.430Z,99121.00
2023-03-15T14:20:27.768Z,99122.28
2023-03-15T14:23:11.986Z,99129.13
2023-03-15T14:26:03.633Z,99133.88
2023-03-15T14:28:41.961Z,99136.28
2023-03-15T14:31:31.127Z,99132.06
2023-03-15T14:34:26.686Z,99140.47
2023-03-15T14:37:07.719Z,99144.44
2023-03-15T14:40:08.105Z,99153.84
2023-03-15T14:42:52.989Z,99156.66
2023-03-15T14:45:36.698Z,99158.34
2023-03-15T14:48:33.401Z,99160.22
2023-03-15T14:51:22.587Z,99165.09
2023-03-15T14:54:11.010Z,99169.94
2023-03-15T14:57:04.388Z,99172.22
2023-03-15T14:59:48.345Z,99167.53
2023-03-15T15:02:37.469Z,99177.41
2023-03-15T15:05:34.743Z,99179.84
2023-03-15T15:08:16.347Z,99182.97
2023-03-15T15:11:05.745Z,99187.97
2023-03-15T15:13:43.591Z,99194.94
2023-03-15T15:16:19.050Z,99197.00
2023-03-15T15:19:04.813Z,99201.22
2023-03-15T15:21:45.588Z,99210.50
2023-03-15T15:24:36.862Z,99213.84
2023-03-15T15:27:23.017Z,99213.47
2023-03-15T15:30:16.494Z,99223.56
2023-03-15T15:32:58.499Z,99227.25
2023-03-15T15:35:40.194Z,99222.91
2023-03-15T15:38:33.220Z,99228.50
2023-03-15T15:41:18.687Z,99232.44
2023-03-15T15:44:01.973Z,99239.91
2023-03-15T15:46:42.879Z,99250.84
2023-03-15T15:49:26.555Z,99257.69
2023-03-15T15:52:14.416Z,99261.44
2023-03-15T15:54:55.651Z,99267.59
2023-03-15T15:57:40.977Z,99270.09
2023-03-15T16:00:25.916Z,99277.94
2023-03-15T16:03:21.870Z,99270.09
2023-03-15T16:06:05.904Z,99280.22
2023-03-15T16:08:50.281Z,99288.91
2023-03-15T16:11:29.253Z,99286.66
2023-03-15T16:14:17.388Z,99288.91
2023-03-15T16:16:58.717Z,99290.16
2023-03-15T16:19:42.325Z,99298.00
2023-03-15T16:22:29.275Z,99297.38
2023-03-15T16:25:25.495Z,99307.91
2023-03-15T16:28:10.113Z,99308.72
2023-03-15T16:30:50.719Z,99322.34
2023-03-15T16:33:42.364Z,99319.06
2023-03-15T16:36:32.036Z,99318.19
2023-03-15T16:39:18.789Z,99317.38
2023-03-15T16:41:59.092Z,99323.53
2023-03-15T16:44:42.434Z,99326.22
2023-03-15T16:47:31.390Z,99330.16
2023-03-15T16:50:12.246Z,99338.81
2023-03-15T16:52:49.391Z,99343.34
2023-03-15T16:55:39.962Z,99349.31
2023-03-15T16:58:25.435Z,99369.75
2023-03-15T17:01:06.722Z,99360.44
2023-03-15T17:03:42.229Z,99365.34
2023-03-15T17:06:36.819Z,99372.50
2023-03-15T17:09:25.526Z,99369.72
2023-03-15T17:12:05.808Z,99381.19
2023-03-15T17:14:49.406Z,99373.16
2023-03-15T17:17:34.505Z,99368.78
2023-03-15T17:20:15.321Z,99372.00
2023-03-15T17:22:51.351Z,99373.69
2023-03-15T17:25:37.658Z,99388.09
2023-03-15T17:28:21.748Z,99387.84
2023-03-15T17:31:23.973Z,99396.22
2023-03-15T17:34:15.326Z,99405.13
2023-03-15T17:37:02.227Z,99418.66
2023-03-15T17:39:39.934Z,99419.63
2023-03-15T17:42:34.278Z,99424.63
2023-03-15T17:45:24.024Z,99422.91
2023-03-15T17:48:05.316Z,99433.97
2023-03-15T17:50:47.182Z,99438.13
2023-03-15T17:53:36.329Z,99448.75
2023-03-15T17:56:30.461Z,99454.38
2023-03-15T17:59:15.490Z,99457.38
2023-03-15T18:02:04.938Z,99464.25
2023-03-15T18:04:51.083Z,99472.56
2023-03-15T18:07:31.996Z,99476.88
2023-03-15T18:10:18.148Z,99489.66
2023-03-15T18:13:07.397Z,99487.59
2023-03-15T18:15:59.037Z,99490.22
2023-03-15T18:18:31.462Z,99489.13
2023-03-15T18:21:21.927Z,99497.47
2023-03-15T18:24:01.530Z,99495.44
2023-03-15T18:26:38.718Z,99501.34
2023-03-15T18:29:28.094Z,99506.97
2023-03-15T18:32:12.936Z,99510.03
2023-03-15T18:34:57.487Z,99517.25
2023-03-15T18:37:43.696Z,99526.91
2023-03-15T18:40:18.533Z,99520.81
2023-03-15T18:43:01.502Z,99524.50
2023-03-15T18:45:44.552Z,99532.91
2023-03-15T18:48:18.362Z,99531.91
2023-03-15T18:51:02.978Z,99536.88
2023-03-15T18:53:47.453Z,99534.69
2023-03-15T18:56:35.902Z,99539.47
2023-03-15T18:59:20.358Z,99540.59
2023-03-15T19:02:04.980Z,99536.91
2023-03-15T19:04:45.463Z,99539.38
2023-03-15T19:07:38.629Z,99539.28
2023-03-15T19:10:19.636Z,99546.97
2023-03-15T19:13:02.436Z,99552.03
2023-03-15T19:15:51.129Z,99549.25
2023-03-15T19:18:34.949Z,99555.69
2023-03-15T19:21:18.960Z,99569.38
2023-03-15T19:24:00.509Z,99561.06
2023-03-15T19:26:35.745Z,99564.06
2023-03-15T19:29:13.416Z,99563.78
2023-03-15T19:31:56.862Z,99567.94
2023-03-15T19:34:45.572Z,99571.72
2023-03-15T19:37:20.774Z,99584.72
2023-03-15T19:40:05.170Z,99579.66
2023-03-15T19:42:48.750Z,99583.78
2023-03-15T19:45:42.420Z,99587.84
2023-03-15T19:48:26.111Z,99589.66
2023-03-15T19:51:09.854Z,99587.38
2023-03-15T19:53:59.929Z,99594.63
2023-03-15T19:56:38.054Z,99595.34
2023-03-15T19:59:18.724Z,99598.22
2023-03-15T20:02:01.061Z,99601.53
2023-03-15T20:04:44.258Z,99615.88
2023-03-15T20:07:21.490Z,99613.28
2023-03-15T20:10:08.552Z,99615.59
2023-03-15T20:12:59.046Z,99612.31
2023-03-15T20:15:44.549Z,99616.88
2023-03-15T20:18:31.738Z,99623.72
2023-03-15T20:21:14.816Z,99626.41
2023-03-15T20:24:07.749Z,99629.13
2023-03-15T20:26:54.651Z,99631.16
2023-03-15T20:29:35.249Z,99634.34
2023-03-15T20:32:20.471Z,99640.44
2023-03-15T20:35:02.413Z,99638.56
2023-03-15T20:37:44.124Z,99639.94
2023-03-15T20:40:18.143Z,99633.78
2023-03-15T20:43:05.476Z,99644.78
2023-03-15T20:45:45.929Z,99646.81
2023-03-15T20:48:29.749Z,99646.84
2023-03-15T20:51:12.901Z,99646.06
2023-03-15T20:53:54.181Z,99653.03
2023-03-15T20:56:45.987Z,99650.41
2023-03-15T20:59:29.810Z,99655.31
2023-03-15T21:02:08.555Z,99661.66
2023-03-15T21:04:51.848Z,99654.81
2023-03-15T21:07:32.912Z,99660.31
2023-03-15T21:10:17.164Z,99661.00
2023-03-15T21:13:00.113Z,99663.63
2023-03-15T21:15:51.189Z,99650.06
2023-03-15T21:18:32.873Z,99663.72
2023-03-15T21:21:15.656Z,99662.13
2023-03-15T21:23:54.393Z,99665.78
2023-03-15T21:26:39.373Z,99662.47
2023-03-15T21:29:18.109Z,99662.31
2023-03-15T21:31:59.063Z,99660.94
2023-03-15T21:34:39.652Z,99657.91
2023-03-15T21:37:34.747Z,99665.47
2023-03-15T21:40:17.430Z,99665.03
2023-03-15T21:42:52.694Z,99659.94
2023-03-15T21:45:38.980Z,99659.59
2023-03-15T21:48:28.290Z,99653.44
2023-03-15T21:51:11.189Z,99648.03
2023-03-15T21:54:00.308Z,99647.13
2023-03-15T21:56:42.404Z,99652.53
2023-03-15T21:59:28.793Z,99654.84
2023-03-15T22:02:12.983Z,99658.41
2023-03-15T22:04:56.063Z,99657.34
2023-03-15T22:07:33.770Z,99661.22
2023-03-15T22:10:15.672Z,99660.06
2023-03-15T22:13:01.502Z,99655.75
2023-03-15T22:15:42.351Z,99668.34
2023-03-15T22:18:23.714Z,99672.69
2023-03-15T22:20:59.400Z,99673.34
2023-03-15T22:23:51.460Z,99671.38
2023-03-15T22:26:32.482Z,99680.22
2023-03-15T22:29:11.108Z,99673.13
2023-03-15T22:32:01.796Z,99681.50
2023-03-15T22:34:47.550Z,99686.47
2023-03-15T22:37:34.465Z,99676.81
2023-03-15T22:40:14.272Z,99673.63
2023-03-15T22:42:54.489Z,99672.81
2023-03-15T22:45:37.759Z,99673.84
2023-03-15T22:48:22.922Z,99680.66
2023-03-15T22:51:18.644Z,99681.66
2023-03-15T22:53:59.388Z,99678.16
2023-03-15T22:56:45.556Z,99685.91
2023-03-15T22:59:29.030Z,99689.19
2023-03-15T23:02:07.395Z,99697.31
2023-03-15T23:04:53.184Z,99697.34
2023-03-15T23:07:39.149Z,99693.47
2023-03-15T23:10:25.623Z,99701.88
2023-03-15T23:13:06.714Z,99707.06
2023-03-15T23:15:45.191Z,99706.03
2023-03-15T23:18:31.971Z,99715.22
2023-03-15T23:21:15.509Z,99715.53
2023-03-15T23:23:55.384Z,99720.72
2023-03-15T23:26:47.561Z,99714.72
2023-03-15T23:29:26.877Z,99724.34
2023-03-15T23:32:09.662Z,99716.63
2023-03-15T23:34:48.304Z,99719.63
2023-03-15T23:37:33.039Z,99717.25
2023-03-15T23:40:15.890Z,99715.34
2023-03-15T23:43:02.823Z,99722.16
2023-03-15T23:45:45.238Z,99722.47
2023-03-15T23:48:25.836Z,99728.19
2023-03-15T23:51:13.341Z,99724.56
2023-03-15T23:53:56.617Z,99733.09
2023-03-15T23:56:33.808Z,99738.75
2023-03-15T23:59:17.669Z,99740.47
